Time;durP1;ratioP1;P1;durP2;ratioP2;P2;SDS_P1;SDS_P2;PMS_P1;PMS_P2;Temp;Humidity;BMP_temperature;BMP_pressure;BME280_temperature;BME280_humidity;BME280_pressure;Samples;Min_cycle;Max_cycle;Signal;HPM_P1;HPM_P2
2022/10/22 00:01:52;;;;;;;;;;;;;;;25.82;32.14;101734.63;4962960;28;1181;-33
2022/10/22 00:04:17;;;;;;;;;;;;;;;25.82;32.18;101740.03;4979564;28;1903;-32
2022/10/22 00:06:43;;;;;;;;;;;;;;;25.82;32.01;101730.09;4979694;28;1162;-32
2022/10/22 00:09:09;;;;;;;;;;;;;;;25.89;31.61;101733.06;4979718;28;2534;-32
2022/10/22 00:11:34;;;;;;;;;;;;;;;25.87;31.83;101719.72;4982595;28;883;-32
2022/10/22 00:14:00;;;;;;;;;;;;;;;25.83;31.91;101721.00;4979389;28;1208;-32
2022/10/22 00:16:25;;;;;;;;;;;;;;;25.86;31.83;101715.31;4979440;28;1140;-31
2022/10/22 00:18:50;;;;;;;;;;;;;;;25.76;31.87;101715.38;4979451;28;1126;-32
2022/10/22 00:21:16;;;;;;;;;;;;;;;25.90;32.00;101710.47;4979777;28;1201;-31
2022/10/22 00:23:41;;;;;;;;;;;;;;;25.90;31.92;101710.47;4984597;28;1902;-32
2022/10/22 00:26:06;;;;;;;;;;;;;;;25.80;31.95;101706.00;4979561;28;1165;-31
2022/10/22 00:28:32;;;;;;;;;;;;;;;25.86;32.11;101709.94;4979401;28;1200;-32
2022/10/22 00:30:58;;;;;;;;;;;;;;;25.82;31.95;101697.75;4979087;28;1133;-32
2022/10/22 00:33:23;;;;;;;;;;;;;;;25.79;31.74;101690.00;4979119;28;1160;-31
2022/10/22 00:35:48;;;;;;;;;;;;;;;25.86;32.07;101687.53;4982620;28;881;-31
2022/10/22 00:38:14;;;;;;;;;;;;;;;25.86;31.77;101690.22;4978885;28;2393;-31
2022/10/22 00:40:39;;;;;;;;;;;;;;;25.80;31.96;101681.75;4979674;28;1180;-32
2022/10/22 00:43:04;;;;;;;;;;;;;;;25.89;31.86;101679.13;4979141;28;1146;-31
2022/10/22 00:45:30;;;;;;;;;;;;;;;25.92;31.78;101673.44;4979493;28;1967;-31
2022/10/22 00:47:55;;;;;;;;;;;;;;;25.89;31.67;101677.28;4980832;28;924;-33
2022/10/22 00:50:22;;;;;;;;;;;;;;;25.88;31.91;101670.19;4979158;28;1121;-32
2022/10/22 00:52:48;;;;;;;;;;;;;;;25.85;31.81;101673.19;4962159;28;1194;-33
2022/10/22 00:55:13;;;;;;;;;;;;;;;25.82;31.77;101670.81;4978635;28;1118;-33
2022/10/22 00:57:38;;;;;;;;;;;;;;;25.77;32.21;101665.88;4961853;28;1224;-33
2022/10/22 01:00:04;;;;;;;;;;;;;;;25.85;31.77;101670.50;4961987;28;975;-33
2022/10/22 01:02:29;;;;;;;;;;;;;;;25.78;31.92;101672.97;4979147;28;1176;-34
2022/10/22 01:04:54;;;;;;;;;;;;;;;25.80;31.77;101662.88;4978829;28;1902;-33
2022/10/22 01:07:20;;;;;;;;;;;;;;;25.75;31.88;101659.78;4978774;28;1176;-33
2022/10/22 01:09:49;;;;;;;;;;;;;;;25.82;31.80;101656.47;4961427;28;2569;-33
2022/10/22 01:12:14;;;;;;;;;;;;;;;25.73;32.18;101648.31;4964072;28;1233;-33
2022/10/22 01:14:58;;;;;;;;;;;;;;;25.74;32.11;101647.28;4978686;28;1117;-33
2022/10/22 01:17:26;;;;;;;;;;;;;;;25.74;31.91;101649.16;4978579;28;1098;-32
2022/10/22 01:20:10;;;;;;;;;;;;;;;25.76;32.09;101645.31;4978729;28;1121;-31
2022/10/22 01:22:39;;;;;;;;;;;;;;;25.75;32.00;101645.47;4979633;28;1701;-30
2022/10/22 01:25:11;;;;;;;;;;;;;;;25.79;32.05;101638.78;4961150;28;1899;-31
2022/10/22 01:27:40;;;;;;;;;;;;;;;25.82;32.19;101643.00;4960906;28;1225;-31
2022/10/22 01:30:05;;;;;;;;;;;;;;;25.79;31.96;101646.88;4978275;28;1122;-32
2022/10/22 01:32:32;;;;;;;;;;;;;;;25.77;31.77;101638.94;4978132;28;1149;-31
2022/10/22 01:34:59;;;;;;;;;;;;;;;25.82;32.27;101638.47;4960912;28;863;-31
2022/10/22 01:37:25;;;;;;;;;;;;;;;25.86;31.84;101639.84;4978332;28;1228;-31
2022/10/22 01:39:50;;;;;;;;;;;;;;;25.86;31.94;101633.63;4960792;28;2677;-31
2022/10/22 01:42:15;;;;;;;;;;;;;;;25.85;31.83;101634.59;4960943;28;1127;-31
2022/10/22 01:44:41;;;;;;;;;;;;;;;25.87;31.94;101624.53;4977606;28;1943;-32
2022/10/22 01:47:15;;;;;;;;;;;;;;;25.83;32.06;101621.28;4984885;28;1238;-32
2022/10/22 01:49:59;;;;;;;;;;;;;;;25.83;31.83;101625.81;4981632;28;1228;-31
2022/10/22 01:52:33;;;;;;;;;;;;;;;25.78;31.81;101621.75;4978133;28;1173;-32
2022/10/22 01:55:00;;;;;;;;;;;;;;;25.73;31.99;101621.34;4960293;28;1170;-32
2022/10/22 01:57:27;;;;;;;;;;;;;;;25.77;32.03;101621.91;4960848;28;1111;-33
2022/10/22 02:00:03;;;;;;;;;;;;;;;25.80;32.01;101630.53;4987944;28;1208;-33
2022/10/22 02:02:37;;;;;;;;;;;;;;;25.72;32.01;101626.91;4960626;28;1150;-32
2022/10/22 02:05:11;;;;;;;;;;;;;;;25.70;32.25;101628.91;4960749;28;1930;-33
2022/10/22 02:07:47;;;;;;;;;;;;;;;25.70;32.31;101635.13;4977510;28;2408;-32
2022/10/22 02:10:13;;;;;;;;;;;;;;;25.66;32.05;101637.28;4960449;28;1169;-32
2022/10/22 02:12:39;;;;;;;;;;;;;;;25.62;32.19;101635.00;4990472;28;1157;-32
2022/10/22 02:15:04;;;;;;;;;;;;;;;25.67;32.31;101635.44;4960384;28;1138;-33
2022/10/22 02:17:30;;;;;;;;;;;;;;;25.67;32.07;101635.44;4977703;28;1097;-32
2022/10/22 02:20:07;;;;;;;;;;;;;;;25.65;32.24;101632.03;4959777;28;1130;-33
2022/10/22 02:22:32;;;;;;;;;;;;;;;25.67;32.32;101636.28;4960292;28;1269;-32
2022/10/22 02:24:57;;;;;;;;;;;;;;;25.75;32.00;101630.16;4971147;28;1906;-32
2022/10/22 02:27:38;;;;;;;;;;;;;;;25.69;32.00;101636.16;4977491;28;1188;-31
2022/10/22 02:30:04;;;;;;;;;;;;;;;25.70;31.86;101628.91;4960531;28;1126;-30
2022/10/22 02:32:34;;;;;;;;;;;;;;;25.65;32.25;101624.81;4960337;28;1158;-30
2022/10/22 02:34:59;;;;;;;;;;;;;;;25.69;32.02;101630.75;4980536;28;1145;-31
2022/10/22 02:37:24;;;;;;;;;;;;;;;25.68;32.19;101632.59;4966459;28;1133;-31
2022/10/22 02:39:50;;;;;;;;;;;;;;;25.72;32.10;101634.97;4977134;28;2558;-31
2022/10/22 02:42:15;;;;;;;;;;;;;;;25.72;32.03;101622.38;4959896;28;1146;-31
2022/10/22 02:44:41;;;;;;;;;;;;;;;25.73;32.22;101625.88;4977125;28;1948;-31
2022/10/22 02:47:06;;;;;;;;;;;;;;;25.72;32.03;101629.59;4980233;28;1184;-31
2022/10/22 02:49:31;;;;;;;;;;;;;;;25.67;32.02;101621.97;4964979;28;1153;-31
2022/10/22 02:51:57;;;;;;;;;;;;;;;25.69;32.01;101619.97;4977513;28;1240;-31
2022/10/22 02:54:22;;;;;;;;;;;;;;;25.70;31.96;101618.13;4977051;28;1153;-31
2022/10/22 02:56:48;;;;;;;;;;;;;;;25.74;32.16;101611.44;4977429;28;1153;-31
2022/10/22 02:59:13;;;;;;;;;;;;;;;25.68;32.04;101616.44;4980212;28;1074;-31
2022/10/22 03:01:38;;;;;;;;;;;;;;;25.68;32.18;101610.19;4980414;28;1058;-31
2022/10/22 03:04:03;;;;;;;;;;;;;;;25.67;32.11;101622.78;4976697;28;1898;-31
2022/10/22 03:06:29;;;;;;;;;;;;;;;25.70;32.11;101615.41;4977235;28;1169;-31
2022/10/22 03:08:54;;;;;;;;;;;;;;;25.65;32.36;101611.34;4976973;28;2645;-31
2022/10/22 03:11:19;;;;;;;;;;;;;;;25.73;32.06;101617.81;4980497;28;1196;-31
2022/10/22 03:13:45;;;;;;;;;;;;;;;25.73;32.00;101609.72;4982363;28;1203;-32
2022/10/22 03:16:10;;;;;;;;;;;;;;;25.72;32.08;101614.28;4977198;28;1150;-31
2022/10/22 03:18:35;;;;;;;;;;;;;;;25.66;31.88;101614.88;4976982;28;1146;-31
2022/10/22 03:21:03;;;;;;;;;;;;;;;25.80;31.78;101611.69;4976946;28;1114;-31
2022/10/22 03:23:28;;;;;;;;;;;;;;;25.62;29.28;101610.78;4963568;28;1318;-33
2022/10/22 03:25:54;;;;;;;;;;;;;;;24.99;27.52;101599.75;4962806;28;1903;-34
2022/10/22 03:28:19;;;;;;;;;;;;;;;24.56;27.22;101602.81;4976919;28;1219;-34
2022/10/22 03:30:44;;;;;;;;;;;;;;;24.33;27.48;101589.69;4977381;28;1129;-34
2022/10/22 03:33:10;;;;;;;;;;;;;;;24.18;26.62;101594.66;4980254;28;1177;-33
2022/10/22 03:35:36;;;;;;;;;;;;;;;24.23;27.12;101587.03;4984948;28;1160;-33
2022/10/22 03:38:02;;;;;;;;;;;;;;;24.24;27.29;101590.56;4964458;28;2211;-33
2022/10/22 03:40:27;;;;;;;;;;;;;;;24.15;27.36;101597.59;4980520;28;1196;-34
2022/10/22 03:42:52;;;;;;;;;;;;;;;24.11;27.12;101597.03;4980387;28;1165;-33
2022/10/22 03:45:17;;;;;;;;;;;;;;;24.13;26.96;101600.44;4962733;28;1971;-33
2022/10/22 03:47:43;;;;;;;;;;;;;;;24.08;26.74;101600.00;4984523;28;1130;-32
2022/10/22 03:50:08;;;;;;;;;;;;;;;23.99;26.69;101604.38;4980048;28;1331;-33
2022/10/22 03:52:34;;;;;;;;;;;;;;;23.81;26.45;101602.41;4978373;28;1059;-31
2022/10/22 03:55:00;;;;;;;;;;;;;;;24.17;26.81;101595.66;4980319;28;1197;-30
2022/10/22 03:57:25;;;;;;;;;;;;;;;24.18;26.56;101595.50;4980204;28;1153;-30
2022/10/22 03:59:50;;;;;;;;;;;;;;;24.36;26.79;101594.78;4982885;28;1110;-34
2022/10/22 04:02:16;;;;;;;;;;;;;;;24.72;26.78;101594.16;4980259;28;1146;-33
2022/10/22 04:04:41;;;;;;;;;;;;;;;24.92;27.09;101602.19;4980160;28;1957;-33
2022/10/22 04:07:06;;;;;;;;;;;;;;;25.07;27.47;101597.19;4979870;28;1287;-33
2022/10/22 04:09:32;;;;;;;;;;;;;;;25.13;27.80;101593.88;4979662;28;2559;-33
2022/10/22 04:11:57;;;;;;;;;;;;;;;25.21;28.17;101598.50;4984844;28;1201;-31
2022/10/22 04:14:23;;;;;;;;;;;;;;;25.24;28.17;101598.22;4980071;28;1160;-31
2022/10/22 04:16:48;;;;;;;;;;;;;;;25.21;28.68;101593.13;4979903;28;1169;-31
2022/10/22 04:19:13;;;;;;;;;;;;;;;25.24;29.32;101598.22;4979460;28;1172;-32
2022/10/22 04:21:39;;;;;;;;;;;;;;;25.23;29.20;101587.59;4979178;28;1235;-31
2022/10/22 04:24:04;;;;;;;;;;;;;;;25.27;29.27;101587.16;4983299;28;1911;-31
2022/10/22 04:26:29;;;;;;;;;;;;;;;25.27;29.38;101586.31;4979294;28;1152;-31
2022/10/22 04:28:54;;;;;;;;;;;;;;;25.31;29.52;101583.16;4979595;28;1235;-31
2022/10/22 04:31:21;;;;;;;;;;;;;;;25.43;29.75;101589.19;4979666;28;1212;-31
2022/10/22 04:33:46;;;;;;;;;;;;;;;25.34;29.96;101581.16;4979370;28;1181;-31
2022/10/22 04:36:13;;;;;;;;;;;;;;;25.44;29.73;101580.09;4981762;28;1078;-31
2022/10/22 04:38:38;;;;;;;;;;;;;;;25.43;29.81;101577.56;4978989;28;2661;-31
2022/10/22 04:41:08;;;;;;;;;;;;;;;25.58;29.68;101583.28;4979269;28;1110;-31
2022/10/22 04:43:33;;;;;;;;;;;;;;;25.51;30.28;101583.03;4978228;28;1192;-32
2022/10/22 04:46:01;;;;;;;;;;;;;;;25.60;29.98;101581.28;4978944;28;1961;-31
2022/10/22 04:48:26;;;;;;;;;;;;;;;25.49;30.21;101585.03;4962470;28;1134;-32
2022/10/22 04:50:52;;;;;;;;;;;;;;;25.47;30.49;101583.50;4979130;28;1114;-32
2022/10/22 04:53:17;;;;;;;;;;;;;;;25.51;30.63;101587.56;4978901;28;1201;-30
2022/10/22 04:55:42;;;;;;;;;;;;;;;25.59;30.34;101576.88;4978771;28;1173;-30
2022/10/22 04:58:08;;;;;;;;;;;;;;;25.55;30.77;101576.34;4978806;28;1200;-32
2022/10/22 05:00:33;;;;;;;;;;;;;;;25.55;30.85;101579.06;4985442;28;1150;-31
2022/10/22 05:02:58;;;;;;;;;;;;;;;25.60;30.79;101583.13;4985164;28;1141;-31
2022/10/22 05:05:23;;;;;;;;;;;;;;;25.62;30.89;101587.38;4978784;28;1902;-31
2022/10/22 05:07:50;;;;;;;;;;;;;;;25.67;30.71;101592.34;4978476;28;2350;-31
2022/10/22 05:10:15;;;;;;;;;;;;;;;25.66;30.73;101580.69;4978314;28;1400;-32
2022/10/22 05:12:40;;;;;;;;;;;;;;;25.64;30.87;101584.56;4980227;28;1118;-32
2022/10/22 05:15:06;;;;;;;;;;;;;;;25.60;30.97;101583.97;4978776;28;1126;-31
2022/10/22 05:17:34;;;;;;;;;;;;;;;25.56;31.27;101575.34;4978239;28;1172;-31
2022/10/22 05:19:59;;;;;;;;;;;;;;;25.64;31.24;101580.00;4978633;28;1169;-31
2022/10/22 05:22:24;;;;;;;;;;;;;;;25.71;31.25;101580.22;4978230;28;1160;-32
2022/10/22 05:24:49;;;;;;;;;;;;;;;25.66;31.18;101586.09;4979443;28;1911;-31
2022/10/22 05:27:15;;;;;;;;;;;;;;;25.76;31.04;101590.53;4984892;28;1188;-30
2022/10/22 05:29:40;;;;;;;;;;;;;;;25.69;31.17;101601.13;4978240;28;1161;-32
2022/10/22 05:32:05;;;;;;;;;;;;;;;25.80;31.06;101600.91;4978170;28;1184;-31
2022/10/22 05:34:32;;;;;;;;;;;;;;;25.87;30.88;101601.13;4977985;28;1114;-31
2022/10/22 05:36:57;;;;;;;;;;;;;;;25.80;31.01;101600.03;4985620;28;1109;-31
2022/10/22 05:39:22;;;;;;;;;;;;;;;25.78;31.17;101602.03;4982331;28;2662;-31
2022/10/22 05:41:48;;;;;;;;;;;;;;;25.73;31.23;101601.63;4977837;28;1134;-31
2022/10/22 05:44:13;;;;;;;;;;;;;;;25.74;31.33;101600.66;4977613;28;1894;-31
2022/10/22 05:46:38;;;;;;;;;;;;;;;25.85;31.27;101602.25;4977578;28;1130;-31
2022/10/22 05:49:06;;;;;;;;;;;;;;;25.83;31.25;101599.72;4985939;28;1204;-30
2022/10/22 05:51:32;;;;;;;;;;;;;;;25.80;31.37;101602.72;4980772;28;1212;-30
2022/10/22 05:53:58;;;;;;;;;;;;;;;25.80;31.47;101591.94;4977216;28;1138;-31
2022/10/22 05:56:23;;;;;;;;;;;;;;;25.82;31.16;101592.66;4977388;28;1129;-31
2022/10/22 05:58:48;;;;;;;;;;;;;;;25.84;31.17;101590.63;4977427;28;1153;-32
2022/10/22 06:01:21;;;;;;;;;;;;;;;25.87;31.38;101568.78;4985881;28;1113;-32
2022/10/22 06:03:46;;;;;;;;;;;;;;;25.88;31.17;101572.31;4964293;28;1106;-31
2022/10/22 06:06:14;;;;;;;;;;;;;;;25.95;31.11;101577.91;4977239;28;1903;-31
2022/10/22 06:08:40;;;;;;;;;;;;;;;25.89;31.23;101580.22;4977438;28;1895;-31
2022/10/22 06:11:05;;;;;;;;;;;;;;;25.96;31.25;101574.25;4959939;28;1184;-31
2022/10/22 06:13:31;;;;;;;;;;;;;;;25.88;31.47;101570.47;4987181;28;1118;-32
2022/10/22 06:15:57;;;;;;;;;;;;;;;25.90;31.39;101578.41;4978766;28;1137;-30
2022/10/22 06:18:22;;;;;;;;;;;;;;;25.96;30.99;101568.84;4960755;28;1193;-30
2022/10/22 06:20:47;;;;;;;;;;;;;;;25.95;31.07;101577.91;4977512;28;1169;-32
2022/10/22 06:23:13;;;;;;;;;;;;;;;26.06;30.86;101587.63;4977206;28;1195;-30
2022/10/22 06:25:39;;;;;;;;;;;;;;;26.04;31.16;101585.09;4970109;28;1977;-30
2022/10/22 06:28:04;;;;;;;;;;;;;;;26.04;31.24;101577.00;4977538;28;1122;-31
2022/10/22 06:30:29;;;;;;;;;;;;;;;26.11;31.21;101583.47;4977160;28;1146;-31
2022/10/22 06:32:54;;;;;;;;;;;;;;;26.09;30.98;101592.72;4977335;28;1412;-31
2022/10/22 06:35:20;;;;;;;;;;;;;;;25.96;31.26;101595.81;4977518;28;1118;-32
2022/10/22 06:37:46;;;;;;;;;;;;;;;26.17;30.70;101588.22;4985340;28;1867;-32
2022/10/22 06:40:11;;;;;;;;;;;;;;;26.32;30.50;101584.13;4977171;28;1137;-32
2022/10/22 06:42:37;;;;;;;;;;;;;;;26.22;30.82;101581.53;4977352;28;1086;-33
2022/10/22 06:45:02;;;;;;;;;;;;;;;26.20;30.79;101592.47;4977197;28;1902;-32
2022/10/22 06:47:30;;;;;;;;;;;;;;;26.27;30.85;101580.06;4977682;28;1130;-30
2022/10/22 06:49:55;;;;;;;;;;;;;;;26.29;30.06;101579.91;4983728;28;1221;-30
2022/10/22 06:52:21;;;;;;;;;;;;;;;26.33;30.09;101583.13;4977659;28;1184;-30
2022/10/22 06:54:46;;;;;;;;;;;;;;;26.32;30.01;101567.94;4976683;28;1188;-30
2022/10/22 06:57:11;;;;;;;;;;;;;;;26.33;29.88;101567.81;4976471;28;1142;-31
2022/10/22 06:59:37;;;;;;;;;;;;;;;26.33;29.77;101564.25;4977076;28;1082;-31
2022/10/22 07:02:02;;;;;;;;;;;;;;;26.37;29.86;101554.88;4982468;28;1165;-31
2022/10/22 07:04:27;;;;;;;;;;;;;;;26.42;29.40;101555.25;4976788;28;1894;-31
2022/10/22 07:06:56;;;;;;;;;;;;;;;26.38;29.71;101551.16;4979463;28;1142;-31
2022/10/22 07:09:21;;;;;;;;;;;;;;;26.31;29.70;101550.06;4981284;28;2626;-30
2022/10/22 07:11:46;;;;;;;;;;;;;;;26.38;29.61;101551.16;4981010;28;1228;-30
2022/10/22 07:14:12;;;;;;;;;;;;;;;26.33;29.55;101553.47;4988125;28;1177;-31
2022/10/22 07:16:37;;;;;;;;;;;;;;;26.39;29.67;101553.69;4980869;28;1109;-32
2022/10/22 07:19:03;;;;;;;;;;;;;;;26.37;29.36;101547.63;4962762;28;1126;-32
2022/10/22 07:21:28;;;;;;;;;;;;;;;26.34;29.42;101556.00;4981246;28;1146;-31
2022/10/22 07:23:54;;;;;;;;;;;;;;;26.34;29.19;101544.41;4980342;28;1209;-31
2022/10/22 07:26:19;;;;;;;;;;;;;;;26.40;29.21;101546.44;4987045;28;1915;-31
2022/10/22 07:28:44;;;;;;;;;;;;;;;26.33;29.14;101540.84;4980385;28;1284;-30
2022/10/22 07:31:10;;;;;;;;;;;;;;;26.46;29.29;101550.38;4980546;28;1169;-32
2022/10/22 07:33:35;;;;;;;;;;;;;;;26.53;29.10;101551.41;4980434;28;1050;-30
2022/10/22 07:36:03;;;;;;;;;;;;;;;26.72;28.44;101549.50;4980313;28;1074;-30
2022/10/22 07:38:28;;;;;;;;;;;;;;;26.58;28.58;101543.69;4967502;28;2466;-30
2022/10/22 07:40:53;;;;;;;;;;;;;;;26.73;28.01;101541.25;4980465;28;1201;-30
2022/10/22 07:43:18;;;;;;;;;;;;;;;26.71;28.43;101542.41;4980567;28;1118;-30
2022/10/22 07:45:44;;;;;;;;;;;;;;;26.60;28.24;101538.97;4980348;28;1976;-30
2022/10/22 07:48:09;;;;;;;;;;;;;;;26.60;28.22;101538.97;4980284;28;1204;-30
2022/10/22 07:50:34;;;;;;;;;;;;;;;26.65;27.93;101527.69;4983431;28;900;-30
2022/10/22 07:53:00;;;;;;;;;;;;;;;26.71;28.09;101535.16;4980233;28;1205;-30
2022/10/22 07:55:25;;;;;;;;;;;;;;;26.74;28.09;101529.44;4980283;28;1236;-30
2022/10/22 07:57:50;;;;;;;;;;;;;;;26.78;27.76;101524.56;4980554;28;1282;-30
2022/10/22 08:00:16;;;;;;;;;;;;;;;26.84;27.86;101534.69;4979866;28;1146;-30
2022/10/22 08:02:41;;;;;;;;;;;;;;;26.83;27.59;101534.84;4981865;28;997;-30
2022/10/22 08:05:07;;;;;;;;;;;;;;;26.86;27.92;101531.88;4979898;28;2015;-30
2022/10/22 08:07:32;;;;;;;;;;;;;;;26.86;27.80;101530.00;4980379;28;1208;-30
2022/10/22 08:09:57;;;;;;;;;;;;;;;27.02;27.29;101529.25;4979716;28;1137;-30
2022/10/22 08:12:23;;;;;;;;;;;;;;;27.04;27.25;101523.69;4979849;28;1240;-30
2022/10/22 08:14:48;;;;;;;;;;;;;;;27.06;27.42;101520.81;4983863;28;904;-30
2022/10/22 08:17:13;;;;;;;;;;;;;;;27.00;27.38;101524.97;4961566;28;1522;-30
2022/10/22 08:19:39;;;;;;;;;;;;;;;26.96;27.66;101524.44;4979267;28;1162;-30
2022/10/22 08:22:04;;;;;;;;;;;;;;;27.05;27.27;101529.91;4979128;28;1146;-30
2022/10/22 08:24:29;;;;;;;;;;;;;;;27.03;27.43;101521.97;4979446;28;1915;-30
2022/10/22 08:26:55;;;;;;;;;;;;;;;27.12;27.17;101510.22;4978853;28;1017;-30
2022/10/22 08:29:23;;;;;;;;;;;;;;;27.06;27.16;101513.53;4979103;28;1232;-30
2022/10/22 08:31:48;;;;;;;;;;;;;;;27.16;27.51;101504.47;4979414;28;1165;-30
2022/10/22 08:34:14;;;;;;;;;;;;;;;27.11;27.27;101504.97;4979312;28;1229;-30
2022/10/22 08:36:39;;;;;;;;;;;;;;;27.12;27.52;101506.66;4979472;28;1169;-30
2022/10/22 08:39:04;;;;;;;;;;;;;;;27.12;26.99;101501.25;4979763;28;905;-30
2022/10/22 08:41:30;;;;;;;;;;;;;;;27.16;27.33;101490.97;4978893;28;1161;-30
2022/10/22 08:43:58;;;;;;;;;;;;;;;27.16;27.17;101483.69;4979348;28;1157;-30
2022/10/22 08:46:33;;;;;;;;;;;;;;;27.17;27.31;101481.84;4962063;28;1173;-30
2022/10/22 08:48:59;;;;;;;;;;;;;;;27.24;27.28;101493.69;4979112;28;1181;-30
2022/10/22 08:51:25;;;;;;;;;;;;;;;27.26;27.04;101484.41;4978626;28;1181;-30
2022/10/22 08:53:59;;;;;;;;;;;;;;;27.22;26.78;101488.47;4979500;28;1185;-30
2022/10/22 08:56:24;;;;;;;;;;;;;;;27.23;26.87;101483.88;4978842;28;1208;-32
2022/10/22 08:58:52;;;;;;;;;;;;;;;27.24;26.74;101475.59;4978899;28;1114;-30
2022/10/22 09:01:22;;;;;;;;;;;;;;;27.29;26.47;101474.28;4978956;28;1193;-30
2022/10/22 09:03:58;;;;;;;;;;;;;;;27.29;26.78;101475.13;4971470;28;995;-30
2022/10/22 09:06:24;;;;;;;;;;;;;;;27.30;26.59;101474.13;4961549;28;2130;-30
2022/10/22 09:08:49;;;;;;;;;;;;;;;27.25;26.67;101468.34;4978719;28;1213;-30
2022/10/22 09:11:25;;;;;;;;;;;;;;;27.29;26.86;101466.19;4961089;28;1150;-30
2022/10/22 09:13:52;;;;;;;;;;;;;;;27.33;26.75;101464.81;4978798;28;1137;-30
2022/10/22 09:16:44;;;;;;;;;;;;;;;27.38;26.39;101460.63;4978255;28;1153;-30
2022/10/22 09:19:21;;;;;;;;;;;;;;;27.37;26.34;101458.94;4953711;28;1155;-30
2022/10/22 09:21:56;;;;;;;;;;;;;;;27.37;26.42;101466.19;4978058;28;1193;-30
2022/10/22 09:24:21;;;;;;;;;;;;;;;27.28;26.43;101464.50;4978285;28;1962;-30
2022/10/22 09:26:46;;;;;;;;;;;;;;;27.35;26.11;101458.25;4986413;28;1189;-30
2022/10/22 09:29:18;;;;;;;;;;;;;;;27.36;26.23;101461.81;4982419;28;1401;-30
2022/10/22 09:31:44;;;;;;;;;;;;;;;27.40;25.86;101446.94;4977779;28;1149;-30
2022/10/22 09:34:10;;;;;;;;;;;;;;;27.51;25.68;101451.16;4978158;28;1153;-31
2022/10/22 09:36:35;;;;;;;;;;;;;;;27.39;25.66;101445.25;4960686;28;1269;-31
2022/10/22 09:39:00;;;;;;;;;;;;;;;27.38;26.52;101447.09;4969800;28;1241;-30
2022/10/22 09:41:28;;;;;;;;;;;;;;;27.40;25.56;101441.53;4979493;28;1148;-30
2022/10/22 09:43:53;;;;;;;;;;;;;;;27.43;26.10;101445.75;4977821;28;1228;-30
2022/10/22 09:46:26;;;;;;;;;;;;;;;27.41;25.99;101442.38;4977553;28;1969;-30
2022/10/22 09:48:54;;;;;;;;;;;;;;;27.43;25.51;101446.59;4977980;28;1153;-30
2022/10/22 09:51:19;;;;;;;;;;;;;;;27.49;25.98;101437.81;4977391;28;1495;-30
2022/10/22 09:53:58;;;;;;;;;;;;;;;27.46;25.67;101432.75;4977399;28;1133;-30
2022/10/22 09:56:27;;;;;;;;;;;;;;;27.46;25.85;101424.63;4977711;28;1138;-31
2022/10/22 09:58:54;;;;;;;;;;;;;;;27.52;25.72;101415.03;4977416;28;1161;-31
2022/10/22 10:01:26;;;;;;;;;;;;;;;27.47;25.58;101404.72;4977868;28;1177;-30
2022/10/22 10:03:51;;;;;;;;;;;;;;;27.46;25.33;101408.44;4963381;28;975;-30
2022/10/22 10:06:17;;;;;;;;;;;;;;;27.41;25.15;101410.78;4977484;28;1906;-30
2022/10/22 10:08:42;;;;;;;;;;;;;;;27.51;25.54;101411.47;4977597;28;1142;-30
2022/10/22 10:11:31;;;;;;;;;;;;;;;27.59;25.57;101409.78;4977623;28;1154;-30
2022/10/22 10:14:00;;;;;;;;;;;;;;;27.51;25.56;101411.47;4960215;28;1185;-31
2022/10/22 10:16:26;;;;;;;;;;;;;;;27.46;25.46;101408.44;4987685;28;920;-31
2022/10/22 10:19:00;;;;;;;;;;;;;;;27.55;25.43;101403.00;4977206;28;1169;-31
2022/10/22 10:21:45;;;;;;;;;;;;;;;27.54;25.52;101404.03;4960201;28;1287;-32
2022/10/22 10:24:29;;;;;;;;;;;;;;;27.55;25.56;101408.41;4959577;28;1963;-31
2022/10/22 10:27:24;;;;;;;;;;;;;;;27.49;25.56;101399.16;4982713;28;1130;-31
2022/10/22 10:30:01;;;;;;;;;;;;;;;27.46;25.43;101391.41;4955654;28;1429;-30
2022/10/22 10:32:32;;;;;;;;;;;;;;;27.41;25.58;101391.06;4960499;28;1166;-30
2022/10/22 10:35:03;;;;;;;;;;;;;;;27.41;25.81;101372.97;4977066;28;1114;-30
2022/10/22 10:37:29;;;;;;;;;;;;;;;27.49;25.72;101380.25;4960051;28;1200;-30
2022/10/22 10:40:00;;;;;;;;;;;;;;;27.50;25.36;101379.22;4959320;28;1205;-30
2022/10/22 10:42:27;;;;;;;;;;;;;;;27.48;25.30;101371.28;4959456;28;1142;-30
2022/10/22 10:44:52;;;;;;;;;;;;;;;27.56;25.20;101361.50;4959097;28;1903;-30
2022/10/22 10:47:36;;;;;;;;;;;;;;;27.53;25.54;101353.72;4977054;28;1487;-30
2022/10/22 10:50:11;;;;;;;;;;;;;;;27.51;24.88;101343.91;4977005;28;1248;-31
2022/10/22 10:52:39;;;;;;;;;;;;;;;27.55;25.06;101330.06;4965248;28;909;-31
2022/10/22 10:55:10;;;;;;;;;;;;;;;27.46;25.29;101327.38;4959160;28;1307;-31
2022/10/22 10:57:53;;;;;;;;;;;;;;;27.54;25.47;101322.97;4960238;28;1165;-31
2022/10/22 11:00:19;;;;;;;;;;;;;;;27.51;25.32;101318.75;4976675;28;1415;-31
2022/10/22 11:02:59;;;;;;;;;;;;;;;27.55;25.63;101313.84;4978607;28;1196;-31
2022/10/22 11:05:25;;;;;;;;;;;;;;;27.36;25.79;101315.94;4959989;28;1953;-31
2022/10/22 11:08:10;;;;;;;;;;;;;;;27.29;26.29;101309.50;4976993;28;1216;-31
2022/10/22 11:10:41;;;;;;;;;;;;;;;27.31;26.24;101305.59;4963477;28;1094;-31
2022/10/22 11:13:15;;;;;;;;;;;;;;;27.35;26.02;101303.41;4976922;28;1157;-31
2022/10/22 11:15:41;;;;;;;;;;;;;;;27.31;25.96;101294.81;4982807;28;1134;-31
2022/10/22 11:18:29;;;;;;;;;;;;;;;27.02;27.73;101294.34;4959502;28;1177;-32
2022/10/22 11:21:03;;;;;;;;;;;;;;;26.89;27.78;101292.09;4959657;28;1138;-31
2022/10/22 11:23:34;;;;;;;;;;;;;;;26.75;28.23;101285.53;4976805;28;1129;-31
2022/10/22 11:26:00;;;;;;;;;;;;;;;26.93;27.78;101280.94;4958891;28;1965;-31
2022/10/22 11:28:28;;;;;;;;;;;;;;;26.94;27.77;101279.97;4964164;28;930;-32
2022/10/22 11:30:59;;;;;;;;;;;;;;;26.74;28.15;101277.59;4976761;28;1153;-32
2022/10/22 11:33:25;;;;;;;;;;;;;;;26.72;28.06;101276.91;4959690;28;1173;-32
2022/10/22 11:35:50;;;;;;;;;;;;;;;26.79;27.81;101272.53;4976516;28;1235;-32
2022/10/22 11:38:16;;;;;;;;;;;;;;;26.80;27.72;101262.56;4959401;28;1150;-32
2022/10/22 11:41:11;;;;;;;;;;;;;;;26.75;27.86;101255.84;4962660;28;966;-32
2022/10/22 11:43:55;;;;;;;;;;;;;;;26.77;27.82;101251.13;4960403;28;1242;-32
2022/10/22 11:46:20;;;;;;;;;;;;;;;26.82;27.91;101247.06;4975965;28;1953;-31
2022/10/22 11:48:59;;;;;;;;;;;;;;;26.76;28.11;101246.72;4976674;28;1228;-31
2022/10/22 11:51:27;;;;;;;;;;;;;;;26.80;27.70;101236.44;4978508;28;1197;-32
2022/10/22 11:53:54;;;;;;;;;;;;;;;26.71;28.09;101237.47;4974210;28;2382;-32
2022/10/22 11:56:21;;;;;;;;;;;;;;;26.74;27.79;101234.41;4994149;28;1963;-32
2022/10/22 11:58:46;;;;;;;;;;;;;;;26.58;28.17;101225.28;4996448;28;2229;-32
2022/10/22 12:01:11;;;;;;;;;;;;;;;26.58;28.36;101221.75;4969846;28;2209;-32
2022/10/22 12:03:42;;;;;;;;;;;;;;;26.56;28.21;101223.78;4979438;28;1876;-32
2022/10/22 12:06:11;;;;;;;;;;;;;;;26.61;28.19;101226.84;4989832;28;2108;-31
2022/10/22 12:08:48;;;;;;;;;;;;;;;26.59;28.21;101232.38;4990162;28;1831;-31
2022/10/22 12:11:13;;;;;;;;;;;;;;;26.63;28.08;101233.72;4979435;28;1153;-32
2022/10/22 12:13:57;;;;;;;;;;;;;;;26.61;28.42;101235.75;4979540;28;1118;-32
2022/10/22 12:16:23;;;;;;;;;;;;;;;26.65;28.29;101229.03;4973557;28;909;-32
2022/10/22 12:18:48;;;;;;;;;;;;;;;26.69;28.31;101231.38;4962426;28;1111;-31
2022/10/22 12:21:14;;;;;;;;;;;;;;;26.63;28.34;101222.09;4961817;28;1209;-31
2022/10/22 12:23:39;;;;;;;;;;;;;;;26.60;28.27;101222.44;4979064;28;1220;-32
2022/10/22 12:26:05;;;;;;;;;;;;;;;26.69;28.40;101220.59;4961709;28;1914;-31
2022/10/22 12:28:38;;;;;;;;;;;;;;;26.68;28.46;101217.03;4963214;28;911;-31
2022/10/22 12:31:04;;;;;;;;;;;;;;;26.65;28.59;101217.38;4979225;28;1216;-30
2022/10/22 12:33:31;;;;;;;;;;;;;;;26.61;28.19;101205.25;4979199;28;1138;-31
2022/10/22 12:35:59;;;;;;;;;;;;;;;26.70;28.49;101196.13;4979142;28;1189;-31
2022/10/22 12:38:24;;;;;;;;;;;;;;;26.64;28.48;101202.22;4978417;28;2553;-31
2022/10/22 12:40:50;;;;;;;;;;;;;;;26.64;28.59;101200.31;4991473;28;1169;-33
2022/10/22 12:43:16;;;;;;;;;;;;;;;26.69;28.62;101201.69;4979843;28;1188;-32
2022/10/22 12:45:42;;;;;;;;;;;;;;;26.67;28.56;101201.00;4978797;28;1927;-31
2022/10/22 12:48:13;;;;;;;;;;;;;;;26.71;28.17;101205.06;4978737;28;1102;-31
2022/10/22 12:50:42;;;;;;;;;;;;;;;26.66;28.26;101197.47;4961600;28;1110;-31